Airport Name : Nan

Other Name : Nan

ICAO : VTCN

IATA : NNT

FAA :

Latitude : 18.807914

Longitude : 100.783419

Country : Thailand

Local Date and Time : 15 Jul 2024 20:34

 

TAF (Terminal Aerodrome Forecast)

TAF VTCN 151100Z 1512/1612 20005KT 9999 BKN025 TEMPO 1512/1518 04010G20KT 4000 TSRA FEW020CB BKN025 TEMPO 1520/1602 -TSRA FEW020CB BKN025 TEMPO 1606/1612 09015G25KT 4000 TSRA FEW020CB BKN025

 

METAR (METeorological Aerodrome Report)

VTCN 151300Z VRB02KT 9999 -RA FEW007 SCT030 26/25 Q1005 NOSIG

VTCN 151200Z 14003KT 9000 -RA FEW010 SCT030 26/25 Q1005 NOSIG

VTCN 151100Z 18004KT 9999 -RA FEW005 SCT030 26/25 Q1004 NOSIG

VTCN 151000Z 17003KT 130V210 9999 -RA FEW005 FEW020CB BKN045 25/25 Q1003 NOSIG